createdAt,value
2019-05-02T00:03:56.651Z,98184.62
2019-05-02T00:09:04.053Z,98182.98
2019-05-02T00:14:10.711Z,98180.66
2019-05-02T00:19:16.100Z,98178.85
2019-05-02T00:24:21.440Z,98179.89
2019-05-02T00:29:26.978Z,98181.30
2019-05-02T00:34:32.454Z,98172.61
2019-05-02T00:39:38.153Z,98170.92
2019-05-02T00:44:46.858Z,98172.23
2019-05-02T00:49:50.681Z,98162.53
2019-05-02T00:54:58.692Z,98159.79
2019-05-02T01:00:03.874Z,98162.77
2019-05-02T01:05:11.233Z,98160.51
2019-05-02T01:10:21.203Z,98157.52
2019-05-02T01:15:24.375Z,98149.26
2019-05-02T01:20:30.011Z,98151.50
2019-05-02T01:25:35.496Z,98142.38
2019-05-02T01:31:13.017Z,98142.97
2019-05-02T01:36:26.900Z,98141.56
2019-05-02T01:41:32.552Z,98140.38
2019-05-02T01:46:37.831Z,98135.60
2019-05-02T01:51:47.674Z,98136.02
2019-05-02T01:56:50.506Z,98128.28
2019-05-02T02:01:57.943Z,98125.28
2019-05-02T02:07:04.033Z,98126.34
2019-05-02T02:12:11.274Z,98125.11
2019-05-02T02:17:17.336Z,98115.62
2019-05-02T02:22:39.169Z,98113.91
2019-05-02T02:27:42.188Z,98114.91
2019-05-02T02:32:50.216Z,98109.65
2019-05-02T02:37:55.886Z,98101.10
2019-05-02T02:43:12.710Z,98109.75
2019-05-02T02:48:09.496Z,98105.55
2019-05-02T02:53:18.369Z,98109.40
2019-05-02T02:58:23.949Z,98101.80
2019-05-02T03:03:30.582Z,98106.31
2019-05-02T03:08:44.675Z,98104.45
2019-05-02T03:14:07.503Z,98098.77
2019-05-02T03:19:14.790Z,98093.08
2019-05-02T03:24:19.631Z,98088.69
2019-05-02T03:29:39.657Z,98080.79
2019-05-02T03:34:46.659Z,98085.45
2019-05-02T03:39:41.617Z,98081.66
2019-05-02T03:44:54.926Z,98080.41
2019-05-02T03:49:54.309Z,98081.97
2019-05-02T03:54:59.880Z,98080.80
2019-05-02T04:00:05.887Z,98081.81
2019-05-02T04:05:12.025Z,98077.90
2019-05-02T04:10:33.990Z,98077.27
2019-05-02T04:15:40.113Z,98076.48
2019-05-02T04:20:49.589Z,98079.16
2019-05-02T04:25:55.040Z,98082.28
2019-05-02T04:31:00.388Z,98082.05
2019-05-02T04:36:14.201Z,98080.59
2019-05-02T04:41:18.740Z,98089.11
2019-05-02T04:46:27.269Z,98088.20
2019-05-02T04:51:30.811Z,98081.11
2019-05-02T04:56:42.076Z,98080.94
2019-05-02T05:01:52.620Z,98091.77
2019-05-02T05:06:56.062Z,98094.59
2019-05-02T05:11:59.048Z,98102.58
2019-05-02T05:17:07.880Z,98105.81
2019-05-02T05:22:12.848Z,98102.56
2019-05-02T05:27:22.520Z,98109.89
2019-05-02T05:32:25.436Z,98117.08
2019-05-02T05:37:30.695Z,98114.03
2019-05-02T05:42:37.923Z,98110.48
2019-05-02T05:47:42.975Z,98115.38
2019-05-02T05:52:51.702Z,98118.24
2019-05-02T05:58:03.127Z,98122.41
2019-05-02T06:03:11.555Z,98113.98
2019-05-02T06:08:13.888Z,98106.91
2019-05-02T06:13:18.690Z,98115.20
2019-05-02T06:18:24.016Z,98120.02
2019-05-02T06:23:31.018Z,98120.26
2019-05-02T06:28:41.656Z,98119.23
2019-05-02T06:33:44.470Z,98115.20
2019-05-02T06:38:52.281Z,98109.59
2019-05-02T06:43:56.921Z,98115.70
2019-05-02T06:49:02.593Z,98112.28
2019-05-02T06:54:08.050Z,98111.72
2019-05-02T06:59:18.446Z,98103.16
2019-05-02T07:04:22.816Z,98101.25
2019-05-02T07:09:39.909Z,98101.78
2019-05-02T07:14:34.821Z,98103.91
2019-05-02T07:19:43.863Z,98111.46
2019-05-02T07:24:50.210Z,98106.89
2019-05-02T07:29:57.629Z,98108.20
2019-05-02T07:35:02.551Z,98103.28
2019-05-02T07:40:12.122Z,98101.48
2019-05-02T07:45:17.203Z,98102.86
2019-05-02T07:50:22.740Z,98099.83
2019-05-02T07:55:30.534Z,98095.67
2019-05-02T08:00:37.057Z,98100.91
2019-05-02T08:05:42.617Z,98094.01
2019-05-02T08:10:47.857Z,98098.70
2019-05-02T08:15:53.124Z,98098.33
2019-05-02T08:20:58.505Z,98100.78
2019-05-02T08:26:04.106Z,98095.86
2019-05-02T08:31:13.582Z,98091.67
2019-05-02T08:36:17.815Z,98100.52
2019-05-02T08:41:23.090Z,98090.16
2019-05-02T08:46:28.679Z,98080.63
2019-05-02T08:51:33.935Z,98087.02
2019-05-02T08:56:39.508Z,98081.23
2019-05-02T09:01:44.873Z,98077.71
2019-05-02T09:06:53.135Z,98070.45
2019-05-02T09:12:08.683Z,98062.40
2019-05-02T09:17:08.882Z,98050.63
2019-05-02T09:22:13.154Z,98046.53
2019-05-02T09:27:18.493Z,98048.36
2019-05-02T09:32:26.211Z,98056.73
2019-05-02T09:37:32.104Z,98060.44
2019-05-02T09:42:37.771Z,98060.59
2019-05-02T09:47:56.295Z,98044.83
2019-05-02T09:52:52.265Z,98042.84
2019-05-02T09:57:58.871Z,98033.08
2019-05-02T10:03:04.389Z,98034.94
2019-05-02T10:08:13.505Z,98021.60
2019-05-02T10:13:16.684Z,98010.39
2019-05-02T10:18:28.340Z,98009.16
2019-05-02T10:23:28.997Z,98008.65
2019-05-02T10:28:34.251Z,97997.09
2019-05-02T10:33:39.607Z,97992.86
2019-05-02T10:38:49.090Z,97985.48
2019-05-02T10:43:56.641Z,97977.22
2019-05-02T10:49:12.473Z,97964.73
2019-05-02T10:54:20.506Z,97959.05
2019-05-02T10:59:24.941Z,97967.53
2019-05-02T11:04:32.437Z,97955.72
2019-05-02T11:09:37.640Z,97947.86
2019-05-02T11:14:57.716Z,97942.73
2019-05-02T11:20:05.224Z,97938.77
2019-05-02T11:25:12.084Z,97936.38
2019-05-02T11:30:22.417Z,97938.62
2019-05-02T11:35:24.691Z,97922.34
2019-05-02T11:40:32.024Z,97928.40
2019-05-02T11:45:37.402Z,97906.06
2019-05-02T11:50:43.783Z,97913.24
2019-05-02T11:55:49.242Z,97902.84
2019-05-02T12:00:54.527Z,97908.05
2019-05-02T12:06:01.831Z,97902.75
2019-05-02T12:11:08.430Z,97891.96
2019-05-02T12:16:14.620Z,97892.73
2019-05-02T12:21:19.997Z,97891.56
2019-05-02T12:26:27.632Z,97889.13
2019-05-02T12:31:33.237Z,97887.95
2019-05-02T12:36:38.663Z,97882.95
2019-05-02T12:41:44.353Z,97872.20
2019-05-02T12:46:51.802Z,97881.08
2019-05-02T12:51:57.178Z,97882.95
2019-05-02T12:57:02.555Z,97874.46
2019-05-02T13:02:12.161Z,97874.98
2019-05-02T13:07:17.428Z,97872.31
2019-05-02T13:12:27.824Z,97860.59
2019-05-02T13:17:35.667Z,97845.95
2019-05-02T13:23:00.930Z,97845.00
2019-05-02T13:28:05.567Z,97845.29
2019-05-02T13:33:14.235Z,97828.55
2019-05-02T13:38:23.003Z,97828.23
2019-05-02T13:43:33.216Z,97824.80
2019-05-02T13:48:38.968Z,97822.81
2019-05-02T13:54:03.257Z,97818.48
2019-05-02T13:59:10.513Z,97804.30
2019-05-02T14:04:16.330Z,97809.56
2019-05-02T14:09:44.048Z,97793.63
2019-05-02T14:14:51.929Z,97777.00
2019-05-02T14:20:08.525Z,97772.88
2019-05-02T14:25:08.023Z,97763.49
2019-05-02T14:30:13.985Z,97765.02
2019-05-02T14:35:28.228Z,97752.54
2019-05-02T14:40:34.149Z,97743.22
2019-05-02T14:45:41.958Z,97742.33
2019-05-02T14:50:46.667Z,97743.39
2019-05-02T14:55:57.574Z,97741.52
2019-05-02T15:01:02.873Z,97733.59
2019-05-02T15:06:09.119Z,97733.14
2019-05-02T15:11:14.467Z,97723.34
2019-05-02T15:16:23.052Z,97728.18
2019-05-02T15:21:42.300Z,97725.20
2019-05-02T15:26:48.343Z,97721.84
2019-05-02T15:32:16.061Z,97732.41
2019-05-02T15:37:25.673Z,97729.73
2019-05-02T15:42:28.892Z,97724.48
2019-05-02T15:47:36.936Z,97732.75
2019-05-02T15:52:43.190Z,97735.41
2019-05-02T15:57:49.479Z,97731.27
2019-05-02T16:02:56.271Z,97726.23
2019-05-02T16:08:06.299Z,97721.05
2019-05-02T16:13:15.451Z,97721.32
2019-05-02T16:18:16.984Z,97720.16
2019-05-02T16:23:42.454Z,97719.97
2019-05-02T16:28:47.936Z,97708.98
2019-05-02T16:33:57.398Z,97701.52
2019-05-02T16:39:05.111Z,97706.28
2019-05-02T16:44:12.703Z,97703.67
2019-05-02T16:49:18.746Z,97701.17
2019-05-02T16:54:24.181Z,97697.41
2019-05-02T16:59:30.135Z,97694.20
2019-05-02T17:04:36.619Z,97692.74
2019-05-02T17:10:02.809Z,97698.55
2019-05-02T17:15:31.328Z,97695.07
2019-05-02T17:20:33.955Z,97695.98
2019-05-02T17:26:01.735Z,97691.12
2019-05-02T17:31:10.855Z,97698.13
2019-05-02T17:36:15.392Z,97704.66
2019-05-02T17:41:22.234Z,97712.62
2019-05-02T17:46:27.841Z,97723.02
2019-05-02T17:52:05.362Z,97739.95
2019-05-02T17:57:03.471Z,97772.94
2019-05-02T18:02:12.319Z,97775.60
2019-05-02T18:07:18.105Z,97796.25
2019-05-02T18:12:23.549Z,97800.41
2019-05-02T18:17:29.165Z,97805.58
2019-05-02T18:22:39.965Z,97804.56
2019-05-02T18:27:42.801Z,97808.72
2019-05-02T18:32:48.186Z,97810.62
2019-05-02T18:37:54.410Z,97807.94
2019-05-02T18:43:03.574Z,97811.79
2019-05-02T18:48:07.039Z,97815.77
2019-05-02T18:53:18.630Z,97815.25
2019-05-02T18:58:22.876Z,97820.92
2019-05-02T19:03:29.167Z,97815.84
2019-05-02T19:08:46.707Z,97812.98
2019-05-02T19:13:46.076Z,97819.02
2019-05-02T19:18:55.850Z,97825.20
2019-05-02T19:23:58.519Z,97835.51
2019-05-02T19:29:26.998Z,97835.27
2019-05-02T19:34:33.458Z,97829.02
2019-05-02T19:39:44.831Z,97848.38
2019-05-02T19:44:46.560Z,97851.56
2019-05-02T19:49:54.256Z,97846.70
2019-05-02T19:54:59.433Z,97853.16
2019-05-02T20:00:06.736Z,97850.78
2019-05-02T20:05:16.469Z,97855.36
2019-05-02T20:10:19.655Z,97858.03
2019-05-02T20:15:30.230Z,97866.13
2019-05-02T20:20:58.250Z,97870.88
2019-05-02T20:26:03.804Z,97866.47
2019-05-02T20:31:09.200Z,97868.09
2019-05-02T20:36:14.779Z,97865.05
2019-05-02T20:41:22.406Z,97857.55
2019-05-02T20:46:27.872Z,97859.70
2019-05-02T20:51:36.331Z,97853.34
2019-05-02T20:56:42.628Z,97854.05
2019-05-02T21:01:48.559Z,97860.05
2019-05-02T21:07:11.323Z,97856.77
2019-05-02T21:12:16.623Z,97853.03
2019-05-02T21:17:22.158Z,97852.08
2019-05-02T21:22:29.424Z,97851.49
2019-05-02T21:27:35.295Z,97855.80
2019-05-02T21:32:42.642Z,97862.09
2019-05-02T21:37:49.187Z,97870.05
2019-05-02T21:42:54.781Z,97868.61
2019-05-02T21:48:02.155Z,97875.08
2019-05-02T21:53:13.559Z,97877.89
2019-05-02T21:58:19.122Z,97880.42
2019-05-02T22:03:25.917Z,97873.13
2019-05-02T22:08:32.344Z,97871.83
2019-05-02T22:13:38.244Z,97873.27
2019-05-02T22:18:43.889Z,97866.80
2019-05-02T22:23:49.405Z,97866.45
2019-05-02T22:28:54.728Z,97867.37
2019-05-02T22:34:01.991Z,97870.53
2019-05-02T22:39:35.207Z,97871.73
2019-05-02T22:44:41.735Z,97866.04
2019-05-02T22:49:47.535Z,97868.20
2019-05-02T22:54:53.094Z,97868.33
2019-05-02T22:59:58.479Z,97868.20
2019-05-02T23:05:03.820Z,97878.88
2019-05-02T23:10:09.414Z,97876.34
2019-05-02T23:15:14.639Z,97872.88
2019-05-02T23:20:21.775Z,97888.31
2019-05-02T23:25:44.638Z,97892.16
2019-05-02T23:30:51.872Z,97883.37
2019-05-02T23:35:57.292Z,97886.44
2019-05-02T23:41:02.767Z,97882.60
2019-05-02T23:46:09.068Z,97891.52
2019-05-02T23:51:14.572Z,97893.15
2019-05-02T23:56:21.983Z,97894.00
